Terminal Aerodrome Forecast
Issued by NWS Quad Cities IA IL

Home | Current Version | Previous Version | Text Only | Print | Product List | Glossary On
Versions: 1 2 3 4 5 6 7 8 9 10 11 12 13 14 15 16
000
FTUS43 KDVN 301700
TAFDBQ
TAF
KDBQ 301729Z 3018/3118 19007KT P6SM OVC070
     FM310000 35014G23KT P6SM SCT025 BKN035
     FM310500 34020G30KT P6SM SKC=

USA.gov is the U.S. government's official web portal to all federal, state and local government web resources and services.